Time;durP1;ratioP1;P1;durP2;ratioP2;P2;SDS_P1;SDS_P2;PMS_P1;PMS_P2;Temp;Humidity;BMP_temperature;BMP_pressure;BME280_temperature;BME280_humidity;BME280_pressure;Samples;Min_cycle;Max_cycle;Signal;HPM_P1;HPM_P2
2022/12/11 00:02:24;;;;;;;22.33;19.92;;;;;;;-3.37;100.00;97717.13;15312668;19;20011;-79
2022/12/11 00:07:50;;;;;;;21.38;19.15;;;;;;;-3.32;100.00;97727.38;15325929;19;20016;-80
2022/12/11 00:13:17;;;;;;;21.85;19.55;;;;;;;-3.32;100.00;97730.00;15353765;19;20007;-79
2022/12/11 00:18:42;;;;;;;22.98;20.52;;;;;;;-3.29;100.00;97732.47;15306999;19;20366;-80
2022/12/11 00:24:07;;;;;;;22.05;19.67;;;;;;;-3.27;100.00;97728.78;15308662;19;20089;-80
2022/12/11 00:29:34;;;;;;;19.75;17.65;;;;;;;-3.28;100.00;97728.91;15302887;19;20018;-82
2022/12/11 00:35:00;;;;;;;20.77;18.65;;;;;;;-3.26;100.00;97717.31;15303174;19;20354;-81
2022/12/11 00:40:24;;;;;;;21.80;19.50;;;;;;;-3.26;100.00;97712.06;15305762;19;20003;-81
2022/12/11 00:45:55;;;;;;;23.73;20.98;;;;;;;-3.26;100.00;97713.84;15309965;19;20010;-80
2022/12/11 00:51:20;;;;;;;20.67;18.48;;;;;;;-3.29;100.00;97719.31;15300559;19;20865;-80
2022/12/11 00:56:44;;;;;;;20.73;18.27;;;;;;;-3.31;100.00;97726.44;15303994;19;20551;-79
2022/12/11 01:02:11;;;;;;;19.77;17.25;;;;;;;-3.34;100.00;97726.63;15296211;19;20467;-79
2022/12/11 01:07:36;;;;;;;16.25;14.55;;;;;;;-3.36;100.00;97737.25;15288979;19;20014;-80
2022/12/11 01:13:09;;;;;;;16.55;14.68;;;;;;;-3.39;100.00;97734.78;15302019;19;20007;-80
2022/12/11 01:18:36;;;;;;;15.38;13.73;;;;;;;-3.41;100.00;97740.16;15300020;19;20014;-79
2022/12/11 01:24:01;;;;;;;14.68;13.18;;;;;;;-3.43;100.00;97742.03;15300932;19;20043;-78
2022/12/11 01:29:26;;;;;;;16.55;14.40;;;;;;;-3.46;100.00;97757.16;15297499;19;20015;-80
2022/12/11 01:34:53;;;;;;;17.27;15.13;;;;;;;-3.47;100.00;97750.22;15302180;19;20070;-80
2022/12/11 01:40:19;;;;;;;16.88;15.18;;;;;;;-3.51;100.00;97757.44;15290489;19;20078;-80
2022/12/11 01:45:48;;;;;;;15.80;14.10;;;;;;;-3.51;100.00;97757.44;15300807;19;20007;-80
2022/12/11 01:51:16;;;;;;;16.45;14.60;;;;;;;-3.52;100.00;97761.00;15296922;19;20426;-79
2022/12/11 01:56:44;;;;;;;18.23;15.73;;;;;;;-3.51;100.00;97762.72;15304099;19;20423;-81
2022/12/11 02:02:13;;;;;;;16.25;14.55;;;;;;;-3.56;100.00;97765.63;15296135;19;20023;-79
2022/12/11 02:07:52;;;;;;;17.63;15.55;;;;;;;-3.55;100.00;97753.28;15298255;19;20143;-78
2022/12/11 02:13:22;;;;;;;17.35;15.23;;;;;;;-3.58;100.00;97751.69;15296091;19;20551;-79
2022/12/11 02:18:57;;;;;;;17.77;15.32;;;;;;;-3.58;100.00;97746.41;15298702;19;20018;-81
2022/12/11 02:24:40;;;;;;;15.93;14.15;;;;;;;-3.62;100.00;97744.06;15299819;19;20559;-80
2022/12/11 02:30:13;;;;;;;17.73;14.05;;;;;;;-3.62;100.00;97738.78;15297754;19;20097;-81
2022/12/11 02:35:42;;;;;;;15.60;13.25;;;;;;;-3.59;100.00;97733.34;15303588;19;20006;-80
2022/12/11 02:41:11;;;;;;;18.02;15.55;;;;;;;-3.57;100.00;97732.31;15295424;19;20015;-79
2022/12/11 02:46:39;;;;;;;19.83;15.38;;;;;;;-3.55;100.00;97745.38;15299891;19;20028;-79
2022/12/11 02:52:07;;;;;;;16.23;14.50;;;;;;;-3.53;100.00;97732.97;15301280;19;20014;-79
2022/12/11 02:57:40;;;;;;;16.90;15.10;;;;;;;-3.53;100.00;97735.63;15292150;19;20697;-79
2022/12/11 03:03:08;;;;;;;19.02;15.90;;;;;;;-3.51;100.00;97731.13;15296160;19;20015;-80
2022/12/11 03:08:33;;;;;;;16.60;14.80;;;;;;;-3.53;100.00;97721.63;15292678;19;20021;-79
2022/12/11 03:13:58;;;;;;;18.48;16.02;;;;;;;-3.52;100.00;97723.28;15291346;19;20086;-80
2022/12/11 03:19:35;;;;;;;16.85;15.05;;;;;;;-3.51;100.00;97720.59;15313986;19;20026;-78
2022/12/11 03:25:07;;;;;;;16.65;14.95;;;;;;;-3.49;100.00;97723.97;15328525;19;20021;-80
2022/12/11 03:30:36;;;;;;;17.48;15.68;;;;;;;-3.44;100.00;97734.25;15301559;19;20444;-80
2022/12/11 03:36:09;;;;;;;17.10;15.30;;;;;;;-3.41;100.00;97724.38;15322026;19;20015;-79
2022/12/11 03:41:39;;;;;;;17.90;15.25;;;;;;;-3.41;100.00;97737.53;15312109;19;20017;-80
2022/12/11 03:47:08;;;;;;;15.40;13.90;;;;;;;-3.38;100.00;97725.13;15320077;19;20014;-79
2022/12/11 03:52:37;;;;;;;15.10;13.50;;;;;;;-3.41;100.00;97721.72;15328169;19;20021;-80
2022/12/11 03:58:04;;;;;;;14.50;12.95;;;;;;;-3.45;100.00;97722.00;15328088;19;20022;-79
2022/12/11 04:03:31;;;;;;;13.32;12.00;;;;;;;-3.49;100.00;97712.56;15323836;19;20014;-80
2022/12/11 04:08:59;;;;;;;13.10;11.90;;;;;;;-3.54;100.00;97710.22;15322534;19;20057;-80
2022/12/11 04:25:47;;;;;;;14.25;12.82;;;;;;;-3.56;100.00;97715.59;15324860;19;20062;-78
2022/12/11 04:31:16;;;;;;;14.13;12.65;;;;;;;-3.55;100.00;97713.78;15321885;19;20010;-79
2022/12/11 04:36:45;;;;;;;14.18;12.77;;;;;;;-3.52;100.00;97718.03;15330766;19;20042;-80
2022/12/11 04:42:16;;;;;;;13.00;11.70;;;;;;;-3.56;100.00;97704.19;15322729;19;20019;-79
2022/12/11 04:47:48;;;;;;;13.82;12.43;;;;;;;-3.54;100.00;97704.13;15325121;19;20021;-80
2022/12/11 04:53:16;;;;;;;13.50;12.13;;;;;;;-3.56;100.00;97709.47;15322573;19;20011;-79
2022/12/11 04:58:46;;;;;;;13.88;12.45;;;;;;;-3.63;100.00;97710.78;15322241;19;20018;-79
2022/12/11 05:04:17;;;;;;;15.05;13.55;;;;;;;-3.65;100.00;97705.59;15299458;19;20031;-79
2022/12/11 05:09:41;;;;;;;14.88;13.38;;;;;;;-3.70;100.00;97705.00;15295576;19;20026;-80
2022/12/11 05:15:09;;;;;;;14.23;12.43;;;;;;;-3.72;100.00;97704.25;15300008;19;20014;-82
2022/12/11 05:20:33;;;;;;;13.82;12.52;;;;;;;-3.78;100.00;97699.34;15296592;19;20011;-79
2022/12/11 05:26:00;;;;;;;13.30;11.98;;;;;;;-3.85;100.00;97698.00;15300859;19;20062;-80
2022/12/11 05:31:29;;;;;;;14.18;12.60;;;;;;;-3.87;100.00;97706.84;15314855;19;20068;-80
2022/12/11 05:36:53;;;;;;;14.60;13.23;;;;;;;-3.84;100.00;97697.94;15300512;19;20006;-79
2022/12/11 05:42:18;;;;;;;14.52;13.02;;;;;;;-3.80;100.00;97707.31;15294240;19;20081;-80
2022/12/11 05:47:48;;;;;;;12.73;11.35;;;;;;;-3.81;100.00;97700.38;15301003;19;20101;-80
2022/12/11 05:53:13;;;;;;;13.57;12.27;;;;;;;-3.80;100.00;97696.78;15294682;19;20365;-79
2022/12/11 05:58:39;;;;;;;13.48;12.18;;;;;;;-3.76;100.00;97695.69;15290135;19;20089;-79
2022/12/11 06:04:08;;;;;;;14.27;12.77;;;;;;;-3.80;100.00;97688.91;15296567;19;20011;-78
2022/12/11 06:09:32;;;;;;;13.57;12.18;;;;;;;-3.76;100.00;97692.19;15294026;19;20018;-78
2022/12/11 06:14:57;;;;;;;12.77;11.48;;;;;;;-3.81;100.00;97692.47;15296640;19;20029;-81
2022/12/11 06:20:24;;;;;;;13.15;11.85;;;;;;;-3.81;100.00;97692.47;15292503;19;20073;-80
2022/12/11 06:25:49;;;;;;;14.50;13.00;;;;;;;-3.76;100.00;97694.81;15300264;19;20010;-79
2022/12/11 06:31:32;;;;;;;14.38;12.98;;;;;;;-3.74;100.00;97685.94;15294674;19;20009;-78
2022/12/11 06:37:04;;;;;;;13.95;12.55;;;;;;;-3.73;100.00;97687.63;15330530;19;20014;-79
2022/12/11 06:42:30;;;;;;;15.38;13.85;;;;;;;-3.73;100.00;97686.75;15288638;19;20138;-78
2022/12/11 06:47:55;;;;;;;14.50;13.00;;;;;;;-3.74;100.00;97687.69;15292452;19;20030;-79
2022/12/11 06:53:23;;;;;;;15.25;13.65;;;;;;;-3.70;100.00;97688.38;15293472;19;20035;-80
2022/12/11 06:58:48;;;;;;;14.98;13.48;;;;;;;-3.68;100.00;97681.22;15290564;19;20106;-79
2022/12/11 07:04:12;;;;;;;14.73;13.23;;;;;;;-3.66;100.00;97689.88;15290141;19;20014;-79
2022/12/11 07:09:41;;;;;;;14.48;12.98;;;;;;;-3.65;100.00;97702.09;15293194;19;20022;-78
2022/12/11 07:15:06;;;;;;;14.30;12.90;;;;;;;-3.61;100.00;97698.38;15296074;19;20011;-78
2022/12/11 07:20:31;;;;;;;15.20;13.70;;;;;;;-3.60;100.00;97700.06;15290252;19;20021;-78
2022/12/11 07:25:58;;;;;;;15.02;13.52;;;;;;;-3.59;100.00;97701.75;15293179;19;20015;-78
2022/12/11 07:31:26;;;;;;;14.50;13.00;;;;;;;-3.57;100.00;97698.09;15287221;19;20085;-79
2022/12/11 07:36:52;;;;;;;13.25;11.95;;;;;;;-3.59;100.00;97702.59;15289452;19;20018;-80
2022/12/11 07:42:19;;;;;;;14.05;12.65;;;;;;;-3.57;100.00;97706.00;15287919;19;20115;-78
2022/12/11 07:47:45;;;;;;;13.50;12.20;;;;;;;-3.59;100.00;97707.03;15289625;19;20023;-78
2022/12/11 07:53:11;;;;;;;14.75;13.15;;;;;;;-3.60;100.00;97705.34;15288938;19;20022;-78
2022/12/11 07:58:38;;;;;;;14.55;13.15;;;;;;;-3.66;100.00;97697.78;15289417;19;20412;-78
2022/12/11 08:04:05;;;;;;;15.02;13.48;;;;;;;-3.64;100.00;97704.63;15285329;19;20040;-79
2022/12/11 08:09:29;;;;;;;13.82;12.50;;;;;;;-3.65;100.00;97702.97;15286761;19;20019;-78
2022/12/11 08:14:57;;;;;;;13.88;12.57;;;;;;;-3.70;100.00;97704.19;15294934;19;20011;-81
2022/12/11 08:20:22;;;;;;;14.10;12.80;;;;;;;-3.67;100.00;97701.34;15301627;19;20013;-81
2022/12/11 08:25:50;;;;;;;14.43;13.02;;;;;;;-3.60;100.00;97706.16;15305668;19;20043;-78
2022/12/11 08:31:19;;;;;;;13.57;12.27;;;;;;;-3.57;100.00;97708.63;15298595;19;20034;-80
2022/12/11 08:36:44;;;;;;;12.77;11.48;;;;;;;-3.52;100.00;97699.59;15273682;19;20450;-79
2022/12/11 08:42:08;;;;;;;12.13;11.02;;;;;;;-3.47;100.00;97705.44;15295315;19;20014;-80
2022/12/11 08:47:37;;;;;;;18.40;11.35;;;;;;;-3.39;100.00;97707.63;15301305;19;20028;-79
2022/12/11 08:53:01;;;;;;;12.88;11.55;;;;;;;-3.28;100.00;97710.47;15294602;19;20754;-79
2022/12/11 08:58:26;;;;;;;15.63;11.82;;;;;;;-3.25;100.00;97703.22;15296299;19;20019;-79
2022/12/11 09:03:53;;;;;;;12.85;11.65;;;;;;;-3.15;100.00;97703.50;15312440;19;20398;-79
2022/12/11 09:09:18;;;;;;;12.07;10.85;;;;;;;-3.12;100.00;97695.41;15306508;19;20339;-81
2022/12/11 09:14:42;;;;;;;11.32;10.23;;;;;;;-3.06;100.00;97704.75;15299725;19;20009;-80
2022/12/11 09:20:10;;;;;;;10.90;9.50;;;;;;;-3.02;100.00;97703.59;15295205;19;20018;-78
2022/12/11 09:25:35;;;;;;;10.55;9.55;;;;;;;-2.94;100.00;97703.97;15296734;19;20013;-79
2022/12/11 09:31:00;;;;;;;9.32;8.43;;;;;;;-2.88;100.00;97696.63;15293546;19;20007;-79
2022/12/11 09:36:27;;;;;;;9.93;8.98;;;;;;;-2.81;100.00;97693.53;15299921;19;20007;-77
2022/12/11 09:41:59;;;;;;;9.02;8.18;;;;;;;-2.79;100.00;97682.88;15293519;19;20429;-79
2022/12/11 09:47:33;;;;;;;9.50;8.60;;;;;;;-2.82;100.00;97685.69;15344957;19;20380;-77
2022/12/11 09:53:09;;;;;;;8.00;7.30;;;;;;;-2.84;100.00;97680.53;15328464;19;20025;-81
2022/12/11 09:58:44;;;;;;;8.57;7.78;;;;;;;-2.84;100.00;97677.91;15303394;19;20508;-78
2022/12/11 10:04:23;;;;;;;8.65;7.85;;;;;;;-2.85;100.00;97678.84;15309258;19;20014;-80
2022/12/11 10:09:58;;;;;;;11.45;9.60;;;;;;;-2.86;100.00;97677.16;15306461;19;20063;-79
2022/12/11 10:15:36;;;;;;;11.18;10.07;;;;;;;-2.83;100.00;97673.50;15303975;19;20404;-79
2022/12/11 10:21:03;;;;;;;11.15;10.15;;;;;;;-2.83;100.00;97670.84;15307377;19;20024;-79
2022/12/11 10:26:32;;;;;;;11.80;10.70;;;;;;;-2.76;100.00;97668.69;15312697;19;20750;-79
2022/12/11 10:32:00;;;;;;;12.82;11.55;;;;;;;-2.72;100.00;97670.16;15303837;19;20046;-79
2022/12/11 10:37:25;;;;;;;12.10;11.00;;;;;;;-2.70;100.00;97663.84;15309079;19;20010;-79
2022/12/11 10:43:00;;;;;;;13.30;12.00;;;;;;;-2.61;100.00;97648.41;15309906;19;20032;-80
2022/12/11 10:48:25;;;;;;;12.82;11.60;;;;;;;-2.55;100.00;97640.09;15302939;19;20038;-80
2022/12/11 10:53:51;;;;;;;12.25;11.05;;;;;;;-2.49;100.00;97640.53;15312831;19;20021;-80
2022/12/11 10:59:32;;;;;;;12.25;11.15;;;;;;;-2.46;100.00;97638.66;15307029;19;20086;-79
2022/12/11 11:04:50;;;;;;;11.95;10.85;;;;;;;-2.47;100.00;97632.56;15303462;19;20081;-80
2022/12/11 11:10:24;;;;;;;11.40;10.40;;;;;;;-2.51;100.00;97641.59;15308794;19;20019;-80
2022/12/11 11:16:01;;;;;;;11.13;10.02;;;;;;;-2.58;100.00;97624.44;15298315;19;20413;-79
2022/12/11 11:21:29;;;;;;;10.23;9.23;;;;;;;-2.70;100.00;97613.75;15291668;19;20030;-79
2022/12/11 11:26:54;;;;;;;10.02;9.02;;;;;;;-2.74;100.00;97617.53;15304296;19;20023;-79
2022/12/11 11:32:40;;;;;;;10.70;9.70;;;;;;;-2.84;100.00;97625.19;15304009;19;20098;-79
2022/12/11 11:38:14;;;;;;;11.30;10.20;;;;;;;-2.92;100.00;97614.28;15307333;19;20456;-80
2022/12/11 11:43:47;;;;;;;11.60;10.50;;;;;;;-2.96;100.00;97618.03;15298812;19;20017;-80
2022/12/11 11:49:24;;;;;;;11.88;10.77;;;;;;;-2.99;100.00;97607.69;15298280;19;20137;-79
2022/12/11 11:54:56;;;;;;;12.52;11.38;;;;;;;-3.06;100.00;97604.63;15308329;19;20031;-79
2022/12/11 12:00:23;;;;;;;12.18;11.07;;;;;;;-3.06;100.00;97609.03;15305501;19;20027;-80
2022/12/11 12:06:03;;;;;;;12.93;11.55;;;;;;;-3.06;100.00;97593.22;15310432;19;20043;-79
2022/12/11 12:11:40;;;;;;;13.32;12.05;;;;;;;-3.07;100.00;97591.53;15307629;19;20610;-78
2022/12/11 12:17:14;;;;;;;12.65;11.45;;;;;;;-3.11;100.00;97596.97;15315346;19;20094;-80
2022/12/11 12:22:55;;;;;;;14.65;13.35;;;;;;;-3.12;100.00;97595.28;15317884;19;20018;-80
2022/12/11 12:28:30;;;;;;;14.13;12.82;;;;;;;-3.16;100.00;97578.00;15205802;19;2004134;-81
2022/12/11 12:34:04;;;;;;;13.88;12.57;;;;;;;-3.19;100.00;97586.09;15310420;19;20018;-82
2022/12/11 12:39:48;;;;;;;13.93;12.55;;;;;;;-3.31;100.00;97595.59;15313830;19;20472;-81
2022/12/11 12:45:27;;;;;;;18.40;16.60;;;;;;;-3.37;100.00;97587.25;15318028;19;20019;-80
2022/12/11 12:50:56;;;;;;;14.88;13.45;;;;;;;-3.44;100.00;97597.31;15315825;19;20027;-81
2022/12/11 12:56:27;;;;;;;15.45;13.85;;;;;;;-3.55;100.00;97597.94;15323668;19;20029;-79
2022/12/11 13:01:57;;;;;;;15.55;14.05;;;;;;;-3.57;100.00;97592.78;15338915;19;20099;-80
2022/12/11 13:07:30;;;;;;;15.55;14.13;;;;;;;-3.62;100.00;97588.72;15321764;19;20035;-80
2022/12/11 13:12:59;;;;;;;15.18;13.73;;;;;;;-3.65;100.00;97581.00;15320365;19;20022;-79
2022/12/11 13:18:40;;;;;;;15.63;14.05;;;;;;;-3.68;100.00;97584.69;15325321;19;20018;-80
2022/12/11 13:24:26;;;;;;;15.70;14.20;;;;;;;-3.64;100.00;97585.34;15330915;19;20914;-81
2022/12/11 13:29:53;;;;;;;15.40;13.90;;;;;;;-3.74;100.00;97578.00;15355634;19;20010;-82
2022/12/11 13:35:19;;;;;;;15.88;14.25;;;;;;;-3.78;100.00;97583.56;15365645;19;20003;-81
2022/12/11 13:40:48;;;;;;;15.77;14.10;;;;;;;-3.90;100.00;97575.47;15359881;19;19999;-84
2022/12/11 13:46:21;;;;;;;13.73;12.43;;;;;;;-3.95;100.00;97579.31;15374752;19;20011;-82
2022/12/11 13:52:00;;;;;;;16.33;13.85;;;;;;;-4.08;100.00;97587.91;15367975;19;20022;-81
2022/12/11 13:57:27;;;;;;;15.68;14.13;;;;;;;-4.10;100.00;97581.91;15375009;19;20010;-79
2022/12/11 14:03:15;;;;;;;16.33;14.63;;;;;;;-4.13;100.00;97599.66;15371873;19;20002;-80
2022/12/11 14:14:30;;;;;;;15.68;14.07;;;;;;;-4.17;100.00;97598.97;15368554;19;20003;-80
2022/12/11 14:20:00;;;;;;;15.60;14.10;;;;;;;-4.13;100.00;97602.28;15261581;19;2005758;-81
2022/12/11 14:25:49;;;;;;;18.30;16.48;;;;;;;-4.16;100.00;97598.03;15380306;19;20009;-80
2022/12/11 14:31:19;;;;;;;14.85;13.30;;;;;;;-4.27;100.00;97600.44;15316005;19;20010;-79
2022/12/11 14:36:44;;;;;;;14.00;12.60;;;;;;;-4.20;100.00;97600.00;15312458;19;20019;-79
2022/12/11 14:42:12;;;;;;;15.32;13.80;;;;;;;-4.19;100.00;97608.75;15312650;19;20014;-79
2022/12/11 14:47:43;;;;;;;12.77;11.48;;;;;;;-4.27;100.00;97597.81;15310723;19;20007;-79
2022/12/11 14:53:15;;;;;;;10.52;9.52;;;;;;;-4.43;100.00;97601.34;15306179;19;20478;-80
2022/12/11 14:58:44;;;;;;;11.57;10.40;;;;;;;-4.45;100.00;97603.19;15300123;19;20020;-80
2022/12/11 15:04:06;;;;;;;11.38;10.27;;;;;;;-4.47;100.00;97599.81;15303477;19;20086;-79
2022/12/11 15:09:46;;;;;;;12.30;11.00;;;;;;;-4.51;100.00;97606.16;15299736;19;20026;-80
2022/12/11 15:15:18;;;;;;;12.60;11.38;;;;;;;-4.52;100.00;97604.47;15303804;19;20010;-80
2022/12/11 15:20:42;;;;;;;14.63;13.13;;;;;;;-4.51;100.00;97598.28;15300827;19;20476;-79
2022/12/11 15:26:10;;;;;;;16.58;14.88;;;;;;;-4.52;100.00;97599.22;15306931;19;20031;-78
2022/12/11 15:31:39;;;;;;;18.38;16.50;;;;;;;-4.51;100.00;97596.50;15299893;19;20488;-80
2022/12/11 15:37:04;;;;;;;12.57;11.30;;;;;;;-4.53;100.00;97601.00;15301646;19;20010;-79
2022/12/11 15:42:34;;;;;;;13.45;12.05;;;;;;;-4.52;100.00;97599.22;15301266;19;20456;-79
2022/12/11 15:47:59;;;;;;;13.20;11.90;;;;;;;-4.55;100.00;97609.91;15300077;19;20082;-81
2022/12/11 15:53:23;;;;;;;14.07;12.57;;;;;;;-4.55;100.00;97623.06;15299455;19;20042;-80
2022/12/11 15:58:51;;;;;;;14.48;13.02;;;;;;;-4.61;100.00;97634.78;15295792;19;20091;-80
2022/12/11 16:04:18;;;;;;;15.73;14.13;;;;;;;-4.64;100.00;97634.94;14790634;19;10000692;-80
2022/12/11 16:09:49;;;;;;;16.27;14.43;;;;;;;-4.67;100.00;97645.59;15318976;19;20966;-79
2022/12/11 16:15:17;;;;;;;15.57;13.98;;;;;;;-4.67;100.00;97649.09;15318634;19;20022;-79
2022/12/11 16:20:46;;;;;;;17.40;15.50;;;;;;;-4.71;100.00;97639.69;15293609;19;20022;-79
2022/12/11 16:26:13;;;;;;;17.20;15.40;;;;;;;-4.73;100.00;97641.53;15295153;19;20022;-80
2022/12/11 16:31:40;;;;;;;17.05;15.25;;;;;;;-4.84;100.00;97643.91;15298108;19;20360;-80
2022/12/11 16:37:06;;;;;;;17.30;15.50;;;;;;;-4.91;100.00;97638.16;15303772;19;20031;-79
2022/12/11 16:42:31;;;;;;;17.65;15.85;;;;;;;-4.88;100.00;97634.53;15303911;19;20077;-80
2022/12/11 16:47:58;;;;;;;18.92;16.90;;;;;;;-4.83;100.00;97638.59;15311543;19;20015;-78
2022/12/11 16:53:23;;;;;;;17.92;16.02;;;;;;;-4.82;100.00;97644.69;15304547;19;20500;-80
2022/12/11 16:58:48;;;;;;;17.52;15.60;;;;;;;-4.80;100.00;97630.53;15304001;19;20480;-77
2022/12/11 17:04:16;;;;;;;16.45;14.63;;;;;;;-4.76;100.00;97633.81;15306949;19;20054;-79
2022/12/11 17:09:48;;;;;;;16.83;15.05;;;;;;;-4.74;100.00;97624.06;15309194;19;20092;-79
2022/12/11 17:15:14;;;;;;;16.85;15.15;;;;;;;-4.72;100.00;97632.72;15300645;19;20476;-80
2022/12/11 17:20:43;;;;;;;16.15;14.55;;;;;;;-4.71;100.00;97625.72;15303243;19;20016;-80
2022/12/11 17:26:10;;;;;;;16.67;14.98;;;;;;;-4.68;100.00;97634.25;15304575;19;20086;-82
2022/12/11 17:31:35;;;;;;;18.05;16.25;;;;;;;-4.65;100.00;97633.22;15299293;19;20010;-81
2022/12/11 17:37:02;;;;;;;17.38;15.48;;;;;;;-4.66;100.00;97635.03;15304940;19;20026;-81
2022/12/11 17:42:27;;;;;;;19.55;17.25;;;;;;;-4.62;100.00;97638.34;15300513;19;20454;-81
2022/12/11 17:47:52;;;;;;;20.25;18.08;;;;;;;-4.58;100.00;97646.88;15292344;19;20015;-80
2022/12/11 17:53:19;;;;;;;20.77;18.58;;;;;;;-4.55;100.00;97649.34;15299769;19;20015;-80
2022/12/11 17:58:45;;;;;;;20.85;18.65;;;;;;;-4.54;100.00;97651.03;15297839;19;20027;-80
2022/12/11 18:04:09;;;;;;;21.35;19.02;;;;;;;-4.53;100.00;97652.75;15289327;19;20427;-80
2022/12/11 18:09:43;;;;;;;21.83;19.52;;;;;;;-4.53;100.00;97650.13;15291951;19;20618;-80
2022/12/11 18:15:09;;;;;;;21.80;19.50;;;;;;;-4.54;100.00;97641.38;15299895;19;20082;-80
2022/12/11 18:20:34;;;;;;;24.13;20.05;;;;;;;-4.51;100.00;97650.84;15297126;19;20042;-80
2022/12/11 18:26:03;;;;;;;22.63;20.15;;;;;;;-4.50;100.00;97653.41;15309540;19;20661;-81
2022/12/11 18:31:29;;;;;;;23.38;20.67;;;;;;;-4.47;100.00;97656.81;15292853;19;20085;-80
2022/12/11 18:37:01;;;;;;;22.52;20.08;;;;;;;-4.48;100.00;97650.69;15298515;19;20476;-81
2022/12/11 18:42:28;;;;;;;32.15;25.92;;;;;;;-4.51;100.00;97656.09;15294940;19;20014;-79
2022/12/11 18:47:54;;;;;;;27.48;22.88;;;;;;;-4.55;100.00;97651.97;15301664;19;20015;-81
2022/12/11 18:53:19;;;;;;;25.23;21.33;;;;;;;-4.57;100.00;97661.72;15296686;19;20039;-80
2022/12/11 18:58:48;;;;;;;26.10;22.42;;;;;;;-4.61;100.00;97657.56;15304578;19;20070;-79
2022/12/11 19:04:14;;;;;;;30.60;26.63;;;;;;;-4.62;100.00;97674.25;15300775;19;20022;-79
2022/12/11 19:15:07;;;;;;;26.52;22.50;;;;;;;-4.70;100.00;97667.66;15303326;19;20025;-80
2022/12/11 19:20:37;;;;;;;25.55;22.42;;;;;;;-4.72;100.00;97664.25;15316211;19;20050;-79
2022/12/11 19:26:13;;;;;;;27.50;23.92;;;;;;;-4.78;100.00;97669.88;15324120;19;20010;-79
2022/12/11 19:31:40;;;;;;;29.52;24.42;;;;;;;-4.81;100.00;97672.66;15298730;19;20343;-79
2022/12/11 19:37:05;;;;;;;31.15;24.23;;;;;;;-4.85;100.00;97673.75;15298790;19;20022;-79
2022/12/11 19:42:29;;;;;;;33.63;25.80;;;;;;;-4.84;100.00;97675.44;15290100;19;20082;-80
2022/12/11 19:47:56;;;;;;;32.40;25.23;;;;;;;-4.83;100.00;97675.38;15308330;19;20035;-79
2022/12/11 19:53:22;;;;;;;34.42;26.50;;;;;;;-4.83;100.00;97671.88;15281934;19;20027;-79
2022/12/11 19:58:49;;;;;;;32.15;26.52;;;;;;;-4.81;100.00;97673.50;15290645;19;20096;-79
2022/12/11 20:04:18;;;;;;;43.25;35.40;;;;;;;-4.81;100.00;97667.41;15295460;19;20018;-80
2022/12/11 20:09:50;;;;;;;40.28;34.58;;;;;;;-4.78;100.00;97680.38;15285272;19;20031;-80
2022/12/11 20:15:18;;;;;;;33.15;27.80;;;;;;;-4.75;100.00;97668.84;15305903;19;20018;-79
2022/12/11 20:20:45;;;;;;;32.15;26.35;;;;;;;-4.73;100.00;97683.59;15311901;19;20452;-80
2022/12/11 20:26:11;;;;;;;28.77;24.85;;;;;;;-4.70;100.00;97677.31;15307205;19;20014;-80
2022/12/11 20:31:35;;;;;;;31.50;25.98;;;;;;;-4.73;100.00;97678.34;15302933;19;20425;-80
2022/12/11 20:37:03;;;;;;;32.88;25.30;;;;;;;-4.81;100.00;97673.50;15305033;19;20022;-80
2022/12/11 20:42:28;;;;;;;35.72;27.63;;;;;;;-4.81;100.00;97672.66;15291953;19;20018;-81
2022/12/11 20:47:53;;;;;;;35.58;26.88;;;;;;;-4.84;100.00;97673.69;15303867;19;20029;-80
2022/12/11 20:53:21;;;;;;;35.80;26.85;;;;;;;-4.85;100.00;97679.00;15294591;19;20028;-81
2022/12/11 20:58:46;;;;;;;36.33;28.20;;;;;;;-4.86;100.00;97679.94;15295884;19;20018;-81
2022/12/11 21:04:12;;;;;;;38.72;29.60;;;;;;;-4.89;100.00;97678.31;15302569;19;20018;-79
2022/12/11 21:09:47;;;;;;;39.25;30.10;;;;;;;-4.90;100.00;97683.66;15289828;19;20026;-81
2022/12/11 21:15:13;;;;;;;39.90;30.05;;;;;;;-4.95;100.00;97679.50;15292829;19;20014;-80
2022/12/11 21:20:38;;;;;;;39.42;29.63;;;;;;;-4.96;100.00;97682.22;15298513;19;20761;-80
2022/12/11 21:26:06;;;;;;;37.45;28.23;;;;;;;-4.97;100.00;97685.78;15309492;19;20018;-80
2022/12/11 21:31:30;;;;;;;39.55;29.23;;;;;;;-4.97;100.00;97683.16;15308288;19;20077;-80
2022/12/11 21:36:56;;;;;;;38.80;29.45;;;;;;;-4.96;100.00;97687.47;15300288;19;20023;-79
2022/12/11 21:42:23;;;;;;;36.85;27.52;;;;;;;-4.99;100.00;97683.22;15294754;19;20080;-79
2022/12/11 21:47:48;;;;;;;36.35;28.05;;;;;;;-5.02;100.00;97683.41;15298446;19;20014;-79
2022/12/11 21:53:12;;;;;;;35.95;27.85;;;;;;;-5.06;100.00;97684.50;15293001;19;20023;-79
2022/12/11 21:58:42;;;;;;;36.35;27.77;;;;;;;-5.05;100.00;97687.94;15296884;19;20014;-80
2022/12/11 22:04:07;;;;;;;36.17;27.25;;;;;;;-5.06;100.00;97683.66;15300125;19;20107;-79
2022/12/11 22:09:38;;;;;;;35.97;26.38;;;;;;;-5.06;100.00;97686.28;15293381;19;20011;-80
2022/12/11 22:15:07;;;;;;;33.13;24.90;;;;;;;-5.09;100.00;97689.91;15297169;19;20031;-81
2022/12/11 22:20:31;;;;;;;34.55;25.92;;;;;;;-5.09;100.00;97692.53;15291700;19;20485;-81
2022/12/11 22:25:56;;;;;;;35.50;25.77;;;;;;;-5.08;100.00;97693.38;15294359;19;20671;-80
2022/12/11 22:31:25;;;;;;;34.92;26.00;;;;;;;-5.09;100.00;97681.19;15298374;19;20018;-79
2022/12/11 22:36:50;;;;;;;35.90;26.25;;;;;;;-5.06;100.00;97695.00;15324627;19;20022;-79
2022/12/11 22:42:16;;;;;;;33.80;25.88;;;;;;;-5.08;100.00;97698.63;15330081;19;20487;-80
2022/12/11 22:47:44;;;;;;;28.77;22.35;;;;;;;-5.10;100.00;97693.44;15306814;19;20499;-80
2022/12/11 22:53:08;;;;;;;30.95;23.25;;;;;;;-5.11;100.00;97686.50;15301642;19;20035;-79
2022/12/11 22:58:33;;;;;;;30.80;23.23;;;;;;;-5.09;100.00;97687.28;15311416;19;20502;-78
2022/12/11 23:04:01;;;;;;;29.52;22.67;;;;;;;-5.11;100.00;97695.25;15298379;19;20372;-80
2022/12/11 23:09:32;;;;;;;28.35;22.15;;;;;;;-5.12;100.00;97690.06;15292310;19;20022;-80
2022/12/11 23:14:58;;;;;;;32.10;22.80;;;;;;;-5.13;100.00;97691.84;15285588;19;20019;-79
2022/12/11 23:20:25;;;;;;;31.08;23.23;;;;;;;-5.12;100.00;97697.97;15287577;19;20061;-79
2022/12/11 23:25:52;;;;;;;30.45;23.58;;;;;;;-5.14;100.00;97699.81;15289448;19;20011;-80
2022/12/11 23:31:17;;;;;;;31.42;22.90;;;;;;;-5.17;100.00;97699.97;15285071;19;20039;-79
2022/12/11 23:36:44;;;;;;;32.97;23.73;;;;;;;-5.18;100.00;97700.88;15281883;19;20039;-80
2022/12/11 23:42:03;;;;;;;30.20;22.98;;;;;;;-5.19;100.00;97707.06;15293185;19;20014;-80
2022/12/11 23:47:27;;;;;;;30.08;23.05;;;;;;;-5.20;100.00;97715.88;15301925;19;20014;-80
2022/12/11 23:52:56;;;;;;;29.17;21.58;;;;;;;-5.21;100.00;97711.53;15301202;19;20035;-80
2022/12/11 23:58:20;;;;;;;31.45;22.73;;;;;;;-5.21;100.00;97711.53;15298273;19;20050;-80
